<?xml version="1.0" encoding="utf-8"?>
<gpx xmlns:xsi="http://www.w3.org/2001/XMLSchema-instance" xmlns:xsd="http://www.w3.org/2001/XMLSchema" version="1.1" creator="Shapelink.com" xmlns="http://www.topografix.com/GPX/1/1" xmlns:gpxtpx="http://www.garmin.com/xmlschemas/TrackPointExtension/v1">
  <metadata>
    <name>Løping 4.55 km, 2012-09-02</name>
    <desc></desc>
    <author><name>Mikael Blom</name></author> 
    <time>2012-09-02T20:28:32Z</time>
  </metadata>
  <trk>
    <name>Løping 4.55 km, 2012-09-02</name>
    <trkseg>
      <trkpt lat="59.9772601" lon="17.739172">
        <ele>48.684</ele>
        <time>2012-09-02T20:28:32Z</time>
      </trkpt>
      <trkpt lat="59.9771779" lon="17.7392425">
        <ele>51.5679</ele>
        <time>2012-09-02T20:28:37Z</time>
      </trkpt>
      <trkpt lat="59.9771075" lon="17.739217">
        <ele>46.2806</ele>
        <time>2012-09-02T20:28:41Z</time>
      </trkpt>
      <trkpt lat="59.9770459" lon="17.7392184">
        <ele>40.5128</ele>
        <time>2012-09-02T20:28:45Z</time>
      </trkpt>
      <trkpt lat="59.9769231" lon="17.7392949">
        <ele>37.6287</ele>
        <time>2012-09-02T20:28:51Z</time>
      </trkpt>
      <trkpt lat="59.9768547" lon="17.7392922">
        <ele>37.6287</ele>
        <time>2012-09-02T20:28:54Z</time>
      </trkpt>
      <trkpt lat="59.9766817" lon="17.7393978">
        <ele>38.5901</ele>
        <time>2012-09-02T20:29:00Z</time>
      </trkpt>
      <trkpt lat="59.9765915" lon="17.7394838">
        <ele>39.0707</ele>
        <time>2012-09-02T20:29:04Z</time>
      </trkpt>
      <trkpt lat="59.9765335" lon="17.7395629">
        <ele>37.1481</ele>
        <time>2012-09-02T20:29:08Z</time>
      </trkpt>
      <trkpt lat="59.9764282" lon="17.7397009">
        <ele>34.7449</ele>
        <time>2012-09-02T20:29:14Z</time>
      </trkpt>
      <trkpt lat="59.9763429" lon="17.7399371">
        <ele>35.2255</ele>
        <time>2012-09-02T20:29:20Z</time>
      </trkpt>
      <trkpt lat="59.9762796" lon="17.7401407">
        <ele>34.7449</ele>
        <time>2012-09-02T20:29:25Z</time>
      </trkpt>
      <trkpt lat="59.976219" lon="17.740341">
        <ele>33.7834</ele>
        <time>2012-09-02T20:29:30Z</time>
      </trkpt>
      <trkpt lat="59.9761477" lon="17.7405683">
        <ele>32.8223</ele>
        <time>2012-09-02T20:29:36Z</time>
      </trkpt>
      <trkpt lat="59.9760936" lon="17.7407637">
        <ele>31.3801</ele>
        <time>2012-09-02T20:29:41Z</time>
      </trkpt>
      <trkpt lat="59.9760488" lon="17.7409211">
        <ele>31.3801</ele>
        <time>2012-09-02T20:29:45Z</time>
      </trkpt>
      <trkpt lat="59.9760061" lon="17.7411053">
        <ele>31.3801</ele>
        <time>2012-09-02T20:29:50Z</time>
      </trkpt>
      <trkpt lat="59.9759513" lon="17.7413097">
        <ele>32.8223</ele>
        <time>2012-09-02T20:29:55Z</time>
      </trkpt>
      <trkpt lat="59.9758929" lon="17.741556">
        <ele>32.3416</ele>
        <time>2012-09-02T20:30:01Z</time>
      </trkpt>
      <trkpt lat="59.9758449" lon="17.7417794">
        <ele>33.3029</ele>
        <time>2012-09-02T20:30:06Z</time>
      </trkpt>
      <trkpt lat="59.9758113" lon="17.7419771">
        <ele>33.7834</ele>
        <time>2012-09-02T20:30:10Z</time>
      </trkpt>
      <trkpt lat="59.9757625" lon="17.742196">
        <ele>35.7061</ele>
        <time>2012-09-02T20:30:15Z</time>
      </trkpt>
      <trkpt lat="59.9757033" lon="17.7424494">
        <ele>37.6287</ele>
        <time>2012-09-02T20:30:21Z</time>
      </trkpt>
      <trkpt lat="59.9756347" lon="17.7427497">
        <ele>39.0707</ele>
        <time>2012-09-02T20:30:28Z</time>
      </trkpt>
      <trkpt lat="59.9755932" lon="17.7429156">
        <ele>38.5901</ele>
        <time>2012-09-02T20:30:32Z</time>
      </trkpt>
      <trkpt lat="59.9755281" lon="17.7431693">
        <ele>38.5901</ele>
        <time>2012-09-02T20:30:38Z</time>
      </trkpt>
      <trkpt lat="59.9754596" lon="17.7434291">
        <ele>36.6675</ele>
        <time>2012-09-02T20:30:44Z</time>
      </trkpt>
      <trkpt lat="59.9754157" lon="17.7436559">
        <ele>36.1868</ele>
        <time>2012-09-02T20:30:49Z</time>
      </trkpt>
      <trkpt lat="59.9753717" lon="17.7439255">
        <ele>36.6675</ele>
        <time>2012-09-02T20:30:55Z</time>
      </trkpt>
      <trkpt lat="59.9753163" lon="17.7442195">
        <ele>39.5513</ele>
        <time>2012-09-02T20:31:02Z</time>
      </trkpt>
      <trkpt lat="59.975254" lon="17.7445008">
        <ele>40.0321</ele>
        <time>2012-09-02T20:31:10Z</time>
      </trkpt>
      <trkpt lat="59.9752054" lon="17.7447083">
        <ele>39.5513</ele>
        <time>2012-09-02T20:31:15Z</time>
      </trkpt>
      <trkpt lat="59.9751321" lon="17.7449519">
        <ele>38.1094</ele>
        <time>2012-09-02T20:31:21Z</time>
      </trkpt>
      <trkpt lat="59.9751151" lon="17.7449867">
        <ele>38.1094</ele>
        <time>2012-09-02T20:31:22Z</time>
      </trkpt>
      <trkpt lat="59.9750348" lon="17.7452638">
        <ele>38.1094</ele>
        <time>2012-09-02T20:31:28Z</time>
      </trkpt>
      <trkpt lat="59.9750184" lon="17.7453105">
        <ele>38.1094</ele>
        <time>2012-09-02T20:31:29Z</time>
      </trkpt>
      <trkpt lat="59.9749259" lon="17.7455508">
        <ele>37.6287</ele>
        <time>2012-09-02T20:31:35Z</time>
      </trkpt>
      <trkpt lat="59.9749014" lon="17.745616">
        <ele>38.1094</ele>
        <time>2012-09-02T20:31:37Z</time>
      </trkpt>
      <trkpt lat="59.9748101" lon="17.7458319">
        <ele>40.0321</ele>
        <time>2012-09-02T20:31:43Z</time>
      </trkpt>
      <trkpt lat="59.9747204" lon="17.7459689">
        <ele>40.5128</ele>
        <time>2012-09-02T20:31:48Z</time>
      </trkpt>
      <trkpt lat="59.9746045" lon="17.7461458">
        <ele>40.9934</ele>
        <time>2012-09-02T20:31:54Z</time>
      </trkpt>
      <trkpt lat="59.9744832" lon="17.7463231">
        <ele>40.5128</ele>
        <time>2012-09-02T20:32:00Z</time>
      </trkpt>
      <trkpt lat="59.9744656" lon="17.7463446">
        <ele>40.5128</ele>
        <time>2012-09-02T20:32:01Z</time>
      </trkpt>
      <trkpt lat="59.9743269" lon="17.7465266">
        <ele>39.5513</ele>
        <time>2012-09-02T20:32:08Z</time>
      </trkpt>
      <trkpt lat="59.9741953" lon="17.7466798">
        <ele>39.5513</ele>
        <time>2012-09-02T20:32:14Z</time>
      </trkpt>
      <trkpt lat="59.9741532" lon="17.7467463">
        <ele>40.0321</ele>
        <time>2012-09-02T20:32:16Z</time>
      </trkpt>
      <trkpt lat="59.9740304" lon="17.7468695">
        <ele>42.4354</ele>
        <time>2012-09-02T20:32:22Z</time>
      </trkpt>
      <trkpt lat="59.9739052" lon="17.7469898">
        <ele>43.3966</ele>
        <time>2012-09-02T20:32:28Z</time>
      </trkpt>
      <trkpt lat="59.9737972" lon="17.7471193">
        <ele>44.8386</ele>
        <time>2012-09-02T20:32:33Z</time>
      </trkpt>
      <trkpt lat="59.9737227" lon="17.7472372">
        <ele>45.3192</ele>
        <time>2012-09-02T20:32:37Z</time>
      </trkpt>
      <trkpt lat="59.973614" lon="17.7473819">
        <ele>43.8773</ele>
        <time>2012-09-02T20:32:42Z</time>
      </trkpt>
      <trkpt lat="59.9735046" lon="17.7475043">
        <ele>42.916</ele>
        <time>2012-09-02T20:32:47Z</time>
      </trkpt>
      <trkpt lat="59.973425" lon="17.7475811">
        <ele>42.916</ele>
        <time>2012-09-02T20:32:51Z</time>
      </trkpt>
      <trkpt lat="59.9733597" lon="17.747641">
        <ele>43.3966</ele>
        <time>2012-09-02T20:32:54Z</time>
      </trkpt>
      <trkpt lat="59.9732715" lon="17.747717">
        <ele>45.3192</ele>
        <time>2012-09-02T20:32:58Z</time>
      </trkpt>
      <trkpt lat="59.9731607" lon="17.7478335">
        <ele>46.2806</ele>
        <time>2012-09-02T20:33:03Z</time>
      </trkpt>
      <trkpt lat="59.9730525" lon="17.747949">
        <ele>46.2806</ele>
        <time>2012-09-02T20:33:08Z</time>
      </trkpt>
      <trkpt lat="59.9729075" lon="17.7481668">
        <ele>47.7225</ele>
        <time>2012-09-02T20:33:15Z</time>
      </trkpt>
      <trkpt lat="59.9728211" lon="17.7483371">
        <ele>46.7612</ele>
        <time>2012-09-02T20:33:20Z</time>
      </trkpt>
      <trkpt lat="59.9727511" lon="17.7485146">
        <ele>44.358</ele>
        <time>2012-09-02T20:33:25Z</time>
      </trkpt>
      <trkpt lat="59.9727205" lon="17.7486462">
        <ele>43.3966</ele>
        <time>2012-09-02T20:33:28Z</time>
      </trkpt>
      <trkpt lat="59.9726619" lon="17.7487843">
        <ele>41.9547</ele>
        <time>2012-09-02T20:33:32Z</time>
      </trkpt>
      <trkpt lat="59.9725763" lon="17.7489642">
        <ele>43.8773</ele>
        <time>2012-09-02T20:33:38Z</time>
      </trkpt>
      <trkpt lat="59.9724858" lon="17.7491571">
        <ele>45.7999</ele>
        <time>2012-09-02T20:33:43Z</time>
      </trkpt>
      <trkpt lat="59.9723874" lon="17.7493704">
        <ele>48.2034</ele>
        <time>2012-09-02T20:33:50Z</time>
      </trkpt>
      <trkpt lat="59.972291" lon="17.7495418">
        <ele>49.6453</ele>
        <time>2012-09-02T20:33:55Z</time>
      </trkpt>
      <trkpt lat="59.9722245" lon="17.7497047">
        <ele>49.1646</ele>
        <time>2012-09-02T20:34:00Z</time>
      </trkpt>
      <trkpt lat="59.9721745" lon="17.7498305">
        <ele>47.7225</ele>
        <time>2012-09-02T20:34:04Z</time>
      </trkpt>
      <trkpt lat="59.9720642" lon="17.7500824">
        <ele>48.2034</ele>
        <time>2012-09-02T20:34:10Z</time>
      </trkpt>
      <trkpt lat="59.9719448" lon="17.750337">
        <ele>51.0872</ele>
        <time>2012-09-02T20:34:15Z</time>
      </trkpt>
      <trkpt lat="59.9718681" lon="17.7504875">
        <ele>46.7612</ele>
        <time>2012-09-02T20:34:20Z</time>
      </trkpt>
      <trkpt lat="59.9717653" lon="17.7506977">
        <ele>40.5128</ele>
        <time>2012-09-02T20:34:26Z</time>
      </trkpt>
      <trkpt lat="59.9716864" lon="17.7508194">
        <ele>38.5901</ele>
        <time>2012-09-02T20:34:30Z</time>
      </trkpt>
      <trkpt lat="59.9715354" lon="17.7510322">
        <ele>35.2255</ele>
        <time>2012-09-02T20:34:37Z</time>
      </trkpt>
      <trkpt lat="59.9714423" lon="17.7511674">
        <ele>33.7834</ele>
        <time>2012-09-02T20:34:41Z</time>
      </trkpt>
      <trkpt lat="59.9713465" lon="17.7513053">
        <ele>31.8607</ele>
        <time>2012-09-02T20:34:45Z</time>
      </trkpt>
      <trkpt lat="59.9712533" lon="17.7513819">
        <ele>31.8607</ele>
        <time>2012-09-02T20:34:49Z</time>
      </trkpt>
      <trkpt lat="59.9711201" lon="17.7515338">
        <ele>30.8995</ele>
        <time>2012-09-02T20:34:55Z</time>
      </trkpt>
      <trkpt lat="59.9710752" lon="17.7515727">
        <ele>30.8995</ele>
        <time>2012-09-02T20:34:57Z</time>
      </trkpt>
      <trkpt lat="59.9709687" lon="17.7517257">
        <ele>30.8995</ele>
        <time>2012-09-02T20:35:03Z</time>
      </trkpt>
      <trkpt lat="59.9708686" lon="17.7518544">
        <ele>32.3416</ele>
        <time>2012-09-02T20:35:08Z</time>
      </trkpt>
      <trkpt lat="59.9707646" lon="17.752015">
        <ele>33.3029</ele>
        <time>2012-09-02T20:35:13Z</time>
      </trkpt>
      <trkpt lat="59.9706447" lon="17.7522424">
        <ele>34.2642</ele>
        <time>2012-09-02T20:35:19Z</time>
      </trkpt>
      <trkpt lat="59.9705717" lon="17.7523776">
        <ele>34.2642</ele>
        <time>2012-09-02T20:35:23Z</time>
      </trkpt>
      <trkpt lat="59.9704961" lon="17.752565">
        <ele>33.7834</ele>
        <time>2012-09-02T20:35:28Z</time>
      </trkpt>
      <trkpt lat="59.9704138" lon="17.7527644">
        <ele>34.7449</ele>
        <time>2012-09-02T20:35:34Z</time>
      </trkpt>
      <trkpt lat="59.9703413" lon="17.7529578">
        <ele>34.7449</ele>
        <time>2012-09-02T20:35:39Z</time>
      </trkpt>
      <trkpt lat="59.9702796" lon="17.7531633">
        <ele>34.2642</ele>
        <time>2012-09-02T20:35:44Z</time>
      </trkpt>
      <trkpt lat="59.970219" lon="17.7533726">
        <ele>32.8223</ele>
        <time>2012-09-02T20:35:49Z</time>
      </trkpt>
      <trkpt lat="59.9701352" lon="17.7536059">
        <ele>33.3029</ele>
        <time>2012-09-02T20:35:55Z</time>
      </trkpt>
      <trkpt lat="59.9700501" lon="17.7538161">
        <ele>32.3416</ele>
        <time>2012-09-02T20:36:01Z</time>
      </trkpt>
      <trkpt lat="59.9699634" lon="17.7539746">
        <ele>33.3029</ele>
        <time>2012-09-02T20:36:06Z</time>
      </trkpt>
      <trkpt lat="59.9698636" lon="17.7541982">
        <ele>32.8223</ele>
        <time>2012-09-02T20:36:12Z</time>
      </trkpt>
      <trkpt lat="59.9697989" lon="17.7543432">
        <ele>33.3029</ele>
        <time>2012-09-02T20:36:16Z</time>
      </trkpt>
      <trkpt lat="59.9697221" lon="17.7545289">
        <ele>34.7449</ele>
        <time>2012-09-02T20:36:21Z</time>
      </trkpt>
      <trkpt lat="59.969662" lon="17.754649">
        <ele>35.7061</ele>
        <time>2012-09-02T20:36:25Z</time>
      </trkpt>
      <trkpt lat="59.9695684" lon="17.754834">
        <ele>36.6675</ele>
        <time>2012-09-02T20:36:30Z</time>
      </trkpt>
      <trkpt lat="59.9694886" lon="17.7549982">
        <ele>37.6287</ele>
        <time>2012-09-02T20:36:35Z</time>
      </trkpt>
      <trkpt lat="59.969411" lon="17.7551491">
        <ele>39.0707</ele>
        <time>2012-09-02T20:36:40Z</time>
      </trkpt>
      <trkpt lat="59.9693514" lon="17.755291">
        <ele>39.0707</ele>
        <time>2012-09-02T20:36:44Z</time>
      </trkpt>
      <trkpt lat="59.9692551" lon="17.7555191">
        <ele>38.1094</ele>
        <time>2012-09-02T20:36:50Z</time>
      </trkpt>
      <trkpt lat="59.9691742" lon="17.755707">
        <ele>38.5901</ele>
        <time>2012-09-02T20:36:55Z</time>
      </trkpt>
      <trkpt lat="59.9690779" lon="17.7559399">
        <ele>39.0707</ele>
        <time>2012-09-02T20:37:01Z</time>
      </trkpt>
      <trkpt lat="59.9689877" lon="17.7561115">
        <ele>39.0707</ele>
        <time>2012-09-02T20:37:06Z</time>
      </trkpt>
      <trkpt lat="59.9689109" lon="17.7562839">
        <ele>37.6287</ele>
        <time>2012-09-02T20:37:11Z</time>
      </trkpt>
      <trkpt lat="59.9688329" lon="17.7564414">
        <ele>36.6675</ele>
        <time>2012-09-02T20:37:16Z</time>
      </trkpt>
      <trkpt lat="59.968735" lon="17.7566257">
        <ele>35.7061</ele>
        <time>2012-09-02T20:37:22Z</time>
      </trkpt>
      <trkpt lat="59.968641" lon="17.7567712">
        <ele>35.2255</ele>
        <time>2012-09-02T20:37:27Z</time>
      </trkpt>
      <trkpt lat="59.9685627" lon="17.7568983">
        <ele>34.7449</ele>
        <time>2012-09-02T20:37:32Z</time>
      </trkpt>
      <trkpt lat="59.9684775" lon="17.7570138">
        <ele>34.7449</ele>
        <time>2012-09-02T20:37:36Z</time>
      </trkpt>
      <trkpt lat="59.968352" lon="17.7571739">
        <ele>37.6287</ele>
        <time>2012-09-02T20:37:42Z</time>
      </trkpt>
      <trkpt lat="59.9682408" lon="17.7573386">
        <ele>38.1094</ele>
        <time>2012-09-02T20:37:48Z</time>
      </trkpt>
      <trkpt lat="59.9681138" lon="17.757498">
        <ele>37.1481</ele>
        <time>2012-09-02T20:37:54Z</time>
      </trkpt>
      <trkpt lat="59.9679647" lon="17.7576717">
        <ele>36.6675</ele>
        <time>2012-09-02T20:38:01Z</time>
      </trkpt>
      <trkpt lat="59.9678789" lon="17.7577529">
        <ele>37.6287</ele>
        <time>2012-09-02T20:38:05Z</time>
      </trkpt>
      <trkpt lat="59.9677901" lon="17.7578611">
        <ele>38.5901</ele>
        <time>2012-09-02T20:38:09Z</time>
      </trkpt>
      <trkpt lat="59.967687" lon="17.7579674">
        <ele>39.0707</ele>
        <time>2012-09-02T20:38:14Z</time>
      </trkpt>
      <trkpt lat="59.967646" lon="17.7580094">
        <ele>38.5901</ele>
        <time>2012-09-02T20:38:16Z</time>
      </trkpt>
      <trkpt lat="59.9675004" lon="17.7581601">
        <ele>39.0707</ele>
        <time>2012-09-02T20:38:22Z</time>
      </trkpt>
      <trkpt lat="59.9673848" lon="17.7583092">
        <ele>38.1094</ele>
        <time>2012-09-02T20:38:27Z</time>
      </trkpt>
      <trkpt lat="59.9672942" lon="17.7583622">
        <ele>36.6675</ele>
        <time>2012-09-02T20:38:31Z</time>
      </trkpt>
      <trkpt lat="59.9671572" lon="17.7584765">
        <ele>36.1868</ele>
        <time>2012-09-02T20:38:37Z</time>
      </trkpt>
      <trkpt lat="59.9670198" lon="17.7585923">
        <ele>33.7834</ele>
        <time>2012-09-02T20:38:43Z</time>
      </trkpt>
      <trkpt lat="59.9669142" lon="17.7586762">
        <ele>32.3416</ele>
        <time>2012-09-02T20:38:48Z</time>
      </trkpt>
      <trkpt lat="59.9668528" lon="17.7587112">
        <ele>30.4188</ele>
        <time>2012-09-02T20:38:52Z</time>
      </trkpt>
      <trkpt lat="59.9667587" lon="17.7588092">
        <ele>30.4188</ele>
        <time>2012-09-02T20:38:57Z</time>
      </trkpt>
      <trkpt lat="59.9666375" lon="17.7589678">
        <ele>31.3801</ele>
        <time>2012-09-02T20:39:02Z</time>
      </trkpt>
      <trkpt lat="59.9666129" lon="17.7590022">
        <ele>31.3801</ele>
        <time>2012-09-02T20:39:03Z</time>
      </trkpt>
      <trkpt lat="59.9665686" lon="17.7590671">
        <ele>31.3801</ele>
        <time>2012-09-02T20:39:05Z</time>
      </trkpt>
      <trkpt lat="59.9664599" lon="17.7591794">
        <ele>29.9381</ele>
        <time>2012-09-02T20:39:10Z</time>
      </trkpt>
      <trkpt lat="59.9663593" lon="17.7593367">
        <ele>28.0155</ele>
        <time>2012-09-02T20:39:16Z</time>
      </trkpt>
      <trkpt lat="59.966307" lon="17.7594256">
        <ele>27.0543</ele>
        <time>2012-09-02T20:39:19Z</time>
      </trkpt>
      <trkpt lat="59.9662363" lon="17.7595094">
        <ele>25.6123</ele>
        <time>2012-09-02T20:39:23Z</time>
      </trkpt>
      <trkpt lat="59.9661143" lon="17.7597494">
        <ele>23.209</ele>
        <time>2012-09-02T20:39:30Z</time>
      </trkpt>
      <trkpt lat="59.966025" lon="17.7599203">
        <ele>21.767</ele>
        <time>2012-09-02T20:39:35Z</time>
      </trkpt>
      <trkpt lat="59.9659159" lon="17.7600928">
        <ele>20.8057</ele>
        <time>2012-09-02T20:39:41Z</time>
      </trkpt>
      <trkpt lat="59.9658231" lon="17.7602703">
        <ele>21.767</ele>
        <time>2012-09-02T20:39:47Z</time>
      </trkpt>
      <trkpt lat="59.9657366" lon="17.760405">
        <ele>23.209</ele>
        <time>2012-09-02T20:39:53Z</time>
      </trkpt>
      <trkpt lat="59.9656472" lon="17.7605374">
        <ele>26.0929</ele>
        <time>2012-09-02T20:39:58Z</time>
      </trkpt>
      <trkpt lat="59.9656221" lon="17.7605439">
        <ele>26.0929</ele>
        <time>2012-09-02T20:39:59Z</time>
      </trkpt>
      <trkpt lat="59.9655247" lon="17.7607">
        <ele>27.0543</ele>
        <time>2012-09-02T20:40:04Z</time>
      </trkpt>
      <trkpt lat="59.9654335" lon="17.7608792">
        <ele>28.4962</ele>
        <time>2012-09-02T20:40:10Z</time>
      </trkpt>
      <trkpt lat="59.9653783" lon="17.7610116">
        <ele>29.9381</ele>
        <time>2012-09-02T20:40:14Z</time>
      </trkpt>
      <trkpt lat="59.9652835" lon="17.7612657">
        <ele>33.7834</ele>
        <time>2012-09-02T20:40:21Z</time>
      </trkpt>
      <trkpt lat="59.9652119" lon="17.7615153">
        <ele>34.7449</ele>
        <time>2012-09-02T20:40:27Z</time>
      </trkpt>
      <trkpt lat="59.965128" lon="17.7617572">
        <ele>34.7449</ele>
        <time>2012-09-02T20:40:33Z</time>
      </trkpt>
      <trkpt lat="59.9650535" lon="17.7619399">
        <ele>34.7449</ele>
        <time>2012-09-02T20:40:38Z</time>
      </trkpt>
      <trkpt lat="59.9650228" lon="17.7620178">
        <ele>34.2642</ele>
        <time>2012-09-02T20:40:40Z</time>
      </trkpt>
      <trkpt lat="59.9649489" lon="17.7622302">
        <ele>33.3029</ele>
        <time>2012-09-02T20:40:46Z</time>
      </trkpt>
      <trkpt lat="59.9648819" lon="17.7624161">
        <ele>31.3801</ele>
        <time>2012-09-02T20:40:51Z</time>
      </trkpt>
      <trkpt lat="59.9647855" lon="17.7626728">
        <ele>30.4188</ele>
        <time>2012-09-02T20:40:58Z</time>
      </trkpt>
      <trkpt lat="59.9647053" lon="17.7629417">
        <ele>31.8607</ele>
        <time>2012-09-02T20:41:05Z</time>
      </trkpt>
      <trkpt lat="59.9646505" lon="17.7632197">
        <ele>31.8607</ele>
        <time>2012-09-02T20:41:12Z</time>
      </trkpt>
      <trkpt lat="59.9645748" lon="17.763509">
        <ele>34.7449</ele>
        <time>2012-09-02T20:41:19Z</time>
      </trkpt>
      <trkpt lat="59.964522" lon="17.7636879">
        <ele>37.6287</ele>
        <time>2012-09-02T20:41:23Z</time>
      </trkpt>
      <trkpt lat="59.9644399" lon="17.7640052">
        <ele>42.4354</ele>
        <time>2012-09-02T20:41:28Z</time>
      </trkpt>
      <trkpt lat="59.9643748" lon="17.7642254">
        <ele>43.8773</ele>
        <time>2012-09-02T20:41:33Z</time>
      </trkpt>
      <trkpt lat="59.964366" lon="17.7642549">
        <ele>42.916</ele>
        <time>2012-09-02T20:41:34Z</time>
      </trkpt>
      <trkpt lat="59.9643472" lon="17.7643259">
        <ele>40.9934</ele>
        <time>2012-09-02T20:41:36Z</time>
      </trkpt>
      <trkpt lat="59.9643378" lon="17.7642281">
        <ele>36.1868</ele>
        <time>2012-09-02T20:41:40Z</time>
      </trkpt>
      <trkpt lat="59.9643532" lon="17.7641649">
        <ele>35.2255</ele>
        <time>2012-09-02T20:41:41Z</time>
      </trkpt>
      <trkpt lat="59.9644245" lon="17.763879">
        <ele>32.3416</ele>
        <time>2012-09-02T20:41:47Z</time>
      </trkpt>
      <trkpt lat="59.9644572" lon="17.7637372">
        <ele>31.3801</ele>
        <time>2012-09-02T20:41:50Z</time>
      </trkpt>
      <trkpt lat="59.9645088" lon="17.7634568">
        <ele>30.8995</ele>
        <time>2012-09-02T20:41:56Z</time>
      </trkpt>
      <trkpt lat="59.9645591" lon="17.763233">
        <ele>30.4188</ele>
        <time>2012-09-02T20:42:01Z</time>
      </trkpt>
      <trkpt lat="59.9645726" lon="17.7631999">
        <ele>30.8995</ele>
        <time>2012-09-02T20:42:02Z</time>
      </trkpt>
      <trkpt lat="59.9646472" lon="17.7629346">
        <ele>30.4188</ele>
        <time>2012-09-02T20:42:09Z</time>
      </trkpt>
      <trkpt lat="59.9647111" lon="17.7627488">
        <ele>30.4188</ele>
        <time>2012-09-02T20:42:14Z</time>
      </trkpt>
      <trkpt lat="59.9647805" lon="17.7625656">
        <ele>31.3801</ele>
        <time>2012-09-02T20:42:19Z</time>
      </trkpt>
      <trkpt lat="59.9648539" lon="17.7623954">
        <ele>30.8995</ele>
        <time>2012-09-02T20:42:24Z</time>
      </trkpt>
      <trkpt lat="59.9649244" lon="17.7622178">
        <ele>30.8995</ele>
        <time>2012-09-02T20:42:29Z</time>
      </trkpt>
      <trkpt lat="59.964984" lon="17.7620622">
        <ele>32.8223</ele>
        <time>2012-09-02T20:42:34Z</time>
      </trkpt>
      <trkpt lat="59.9650762" lon="17.7618541">
        <ele>34.2642</ele>
        <time>2012-09-02T20:42:40Z</time>
      </trkpt>
      <trkpt lat="59.9651497" lon="17.7616886">
        <ele>34.2642</ele>
        <time>2012-09-02T20:42:45Z</time>
      </trkpt>
      <trkpt lat="59.9652325" lon="17.7614702">
        <ele>34.7449</ele>
        <time>2012-09-02T20:42:51Z</time>
      </trkpt>
      <trkpt lat="59.9653124" lon="17.7611878">
        <ele>34.7449</ele>
        <time>2012-09-02T20:42:58Z</time>
      </trkpt>
      <trkpt lat="59.9654047" lon="17.7609921">
        <ele>33.7834</ele>
        <time>2012-09-02T20:43:04Z</time>
      </trkpt>
      <trkpt lat="59.9655" lon="17.7608332">
        <ele>33.3029</ele>
        <time>2012-09-02T20:43:10Z</time>
      </trkpt>
      <trkpt lat="59.9655988" lon="17.7606729">
        <ele>31.8607</ele>
        <time>2012-09-02T20:43:16Z</time>
      </trkpt>
      <trkpt lat="59.9656858" lon="17.7605601">
        <ele>30.8995</ele>
        <time>2012-09-02T20:43:21Z</time>
      </trkpt>
      <trkpt lat="59.965814" lon="17.7603867">
        <ele>30.4188</ele>
        <time>2012-09-02T20:43:28Z</time>
      </trkpt>
      <trkpt lat="59.9659041" lon="17.7602508">
        <ele>29.9381</ele>
        <time>2012-09-02T20:43:33Z</time>
      </trkpt>
      <trkpt lat="59.9660002" lon="17.7600877">
        <ele>30.4188</ele>
        <time>2012-09-02T20:43:39Z</time>
      </trkpt>
      <trkpt lat="59.9660861" lon="17.7599488">
        <ele>30.4188</ele>
        <time>2012-09-02T20:43:44Z</time>
      </trkpt>
      <trkpt lat="59.9661686" lon="17.7598188">
        <ele>30.8995</ele>
        <time>2012-09-02T20:43:49Z</time>
      </trkpt>
      <trkpt lat="59.9662675" lon="17.7596171">
        <ele>32.3416</ele>
        <time>2012-09-02T20:43:55Z</time>
      </trkpt>
      <trkpt lat="59.9663693" lon="17.7594262">
        <ele>32.8223</ele>
        <time>2012-09-02T20:44:01Z</time>
      </trkpt>
      <trkpt lat="59.9664516" lon="17.7592925">
        <ele>32.8223</ele>
        <time>2012-09-02T20:44:06Z</time>
      </trkpt>
      <trkpt lat="59.9665018" lon="17.7592151">
        <ele>31.8607</ele>
        <time>2012-09-02T20:44:09Z</time>
      </trkpt>
      <trkpt lat="59.9665598" lon="17.7589152">
        <ele>34.2642</ele>
        <time>2012-09-02T20:44:14Z</time>
      </trkpt>
      <trkpt lat="59.9666518" lon="17.7587807">
        <ele>34.2642</ele>
        <time>2012-09-02T20:44:19Z</time>
      </trkpt>
      <trkpt lat="59.9667478" lon="17.7586857">
        <ele>33.7834</ele>
        <time>2012-09-02T20:44:24Z</time>
      </trkpt>
      <trkpt lat="59.9668214" lon="17.7585694">
        <ele>34.2642</ele>
        <time>2012-09-02T20:44:28Z</time>
      </trkpt>
      <trkpt lat="59.966927" lon="17.7585127">
        <ele>32.3416</ele>
        <time>2012-09-02T20:44:33Z</time>
      </trkpt>
      <trkpt lat="59.9670271" lon="17.7584497">
        <ele>30.8995</ele>
        <time>2012-09-02T20:44:38Z</time>
      </trkpt>
      <trkpt lat="59.9671524" lon="17.7583578">
        <ele>29.9381</ele>
        <time>2012-09-02T20:44:44Z</time>
      </trkpt>
      <trkpt lat="59.967262" lon="17.7582845">
        <ele>28.9769</ele>
        <time>2012-09-02T20:44:49Z</time>
      </trkpt>
      <trkpt lat="59.9673674" lon="17.7581744">
        <ele>29.4575</ele>
        <time>2012-09-02T20:44:54Z</time>
      </trkpt>
      <trkpt lat="59.967487" lon="17.7580374">
        <ele>29.9381</ele>
        <time>2012-09-02T20:45:00Z</time>
      </trkpt>
      <trkpt lat="59.967619" lon="17.7579419">
        <ele>28.9769</ele>
        <time>2012-09-02T20:45:06Z</time>
      </trkpt>
      <trkpt lat="59.9677155" lon="17.7578098">
        <ele>28.9769</ele>
        <time>2012-09-02T20:45:11Z</time>
      </trkpt>
      <trkpt lat="59.9678356" lon="17.7576683">
        <ele>28.9769</ele>
        <time>2012-09-02T20:45:17Z</time>
      </trkpt>
      <trkpt lat="59.9679354" lon="17.7575546">
        <ele>30.4188</ele>
        <time>2012-09-02T20:45:22Z</time>
      </trkpt>
      <trkpt lat="59.9680557" lon="17.75739">
        <ele>31.8607</ele>
        <time>2012-09-02T20:45:28Z</time>
      </trkpt>
      <trkpt lat="59.9681509" lon="17.757292">
        <ele>32.8223</ele>
        <time>2012-09-02T20:45:33Z</time>
      </trkpt>
      <trkpt lat="59.9682811" lon="17.7571239">
        <ele>33.3029</ele>
        <time>2012-09-02T20:45:40Z</time>
      </trkpt>
      <trkpt lat="59.9684102" lon="17.7569496">
        <ele>33.7834</ele>
        <time>2012-09-02T20:45:47Z</time>
      </trkpt>
      <trkpt lat="59.9685095" lon="17.756848">
        <ele>32.8223</ele>
        <time>2012-09-02T20:45:52Z</time>
      </trkpt>
      <trkpt lat="59.9686172" lon="17.7566891">
        <ele>33.7834</ele>
        <time>2012-09-02T20:45:58Z</time>
      </trkpt>
      <trkpt lat="59.9687572" lon="17.7565242">
        <ele>33.7834</ele>
        <time>2012-09-02T20:46:05Z</time>
      </trkpt>
      <trkpt lat="59.9688184" lon="17.756371">
        <ele>34.2642</ele>
        <time>2012-09-02T20:46:09Z</time>
      </trkpt>
      <trkpt lat="59.9689214" lon="17.7561822">
        <ele>34.2642</ele>
        <time>2012-09-02T20:46:15Z</time>
      </trkpt>
      <trkpt lat="59.9690384" lon="17.756002">
        <ele>34.2642</ele>
        <time>2012-09-02T20:46:21Z</time>
      </trkpt>
      <trkpt lat="59.9691561" lon="17.7558208">
        <ele>33.3029</ele>
        <time>2012-09-02T20:46:27Z</time>
      </trkpt>
      <trkpt lat="59.9692651" lon="17.7556411">
        <ele>32.3416</ele>
        <time>2012-09-02T20:46:33Z</time>
      </trkpt>
      <trkpt lat="59.9693416" lon="17.7554404">
        <ele>32.3416</ele>
        <time>2012-09-02T20:46:38Z</time>
      </trkpt>
      <trkpt lat="59.9694316" lon="17.7551493">
        <ele>32.8223</ele>
        <time>2012-09-02T20:46:44Z</time>
      </trkpt>
      <trkpt lat="59.9695669" lon="17.7549428">
        <ele>29.9381</ele>
        <time>2012-09-02T20:46:51Z</time>
      </trkpt>
      <trkpt lat="59.9696557" lon="17.7548284">
        <ele>28.4962</ele>
        <time>2012-09-02T20:46:56Z</time>
      </trkpt>
      <trkpt lat="59.9697212" lon="17.7547096">
        <ele>27.5349</ele>
        <time>2012-09-02T20:47:00Z</time>
      </trkpt>
      <trkpt lat="59.9698061" lon="17.7545905">
        <ele>27.0543</ele>
        <time>2012-09-02T20:47:05Z</time>
      </trkpt>
      <trkpt lat="59.9699072" lon="17.7542626">
        <ele>28.9769</ele>
        <time>2012-09-02T20:47:12Z</time>
      </trkpt>
      <trkpt lat="59.9699852" lon="17.7541113">
        <ele>28.9769</ele>
        <time>2012-09-02T20:47:17Z</time>
      </trkpt>
      <trkpt lat="59.9700461" lon="17.7540228">
        <ele>28.4962</ele>
        <time>2012-09-02T20:47:21Z</time>
      </trkpt>
      <trkpt lat="59.9701377" lon="17.753872">
        <ele>27.0543</ele>
        <time>2012-09-02T20:47:27Z</time>
      </trkpt>
      <trkpt lat="59.9702076" lon="17.7537519">
        <ele>28.0155</ele>
        <time>2012-09-02T20:47:32Z</time>
      </trkpt>
      <trkpt lat="59.9702859" lon="17.7535838">
        <ele>27.5349</ele>
        <time>2012-09-02T20:47:38Z</time>
      </trkpt>
      <trkpt lat="59.9703661" lon="17.7534022">
        <ele>27.5349</ele>
        <time>2012-09-02T20:47:44Z</time>
      </trkpt>
      <trkpt lat="59.9704392" lon="17.7532133">
        <ele>27.0543</ele>
        <time>2012-09-02T20:47:49Z</time>
      </trkpt>
      <trkpt lat="59.9705277" lon="17.7530234">
        <ele>25.1317</ele>
        <time>2012-09-02T20:47:55Z</time>
      </trkpt>
      <trkpt lat="59.9706028" lon="17.7528474">
        <ele>24.1703</ele>
        <time>2012-09-02T20:48:00Z</time>
      </trkpt>
      <trkpt lat="59.9706687" lon="17.7527075">
        <ele>24.1703</ele>
        <time>2012-09-02T20:48:04Z</time>
      </trkpt>
      <trkpt lat="59.9707598" lon="17.7525584">
        <ele>23.209</ele>
        <time>2012-09-02T20:48:09Z</time>
      </trkpt>
      <trkpt lat="59.9708653" lon="17.7523672">
        <ele>22.2476</ele>
        <time>2012-09-02T20:48:15Z</time>
      </trkpt>
      <trkpt lat="59.9709567" lon="17.7522051">
        <ele>22.7283</ele>
        <time>2012-09-02T20:48:20Z</time>
      </trkpt>
      <trkpt lat="59.9710748" lon="17.7520195">
        <ele>23.209</ele>
        <time>2012-09-02T20:48:26Z</time>
      </trkpt>
      <trkpt lat="59.9711939" lon="17.7518693">
        <ele>25.1317</ele>
        <time>2012-09-02T20:48:32Z</time>
      </trkpt>
      <trkpt lat="59.971312" lon="17.7517032">
        <ele>26.5736</ele>
        <time>2012-09-02T20:48:38Z</time>
      </trkpt>
      <trkpt lat="59.9714045" lon="17.7515841">
        <ele>27.0543</ele>
        <time>2012-09-02T20:48:43Z</time>
      </trkpt>
      <trkpt lat="59.9715425" lon="17.7514165">
        <ele>28.9769</ele>
        <time>2012-09-02T20:48:50Z</time>
      </trkpt>
      <trkpt lat="59.9716392" lon="17.7512841">
        <ele>29.4575</ele>
        <time>2012-09-02T20:48:55Z</time>
      </trkpt>
      <trkpt lat="59.97175" lon="17.7511023">
        <ele>29.4575</ele>
        <time>2012-09-02T20:49:01Z</time>
      </trkpt>
      <trkpt lat="59.9718445" lon="17.7509557">
        <ele>29.4575</ele>
        <time>2012-09-02T20:49:06Z</time>
      </trkpt>
      <trkpt lat="59.971933" lon="17.7508194">
        <ele>29.9381</ele>
        <time>2012-09-02T20:49:11Z</time>
      </trkpt>
      <trkpt lat="59.9720227" lon="17.7506335">
        <ele>30.4188</ele>
        <time>2012-09-02T20:49:16Z</time>
      </trkpt>
      <trkpt lat="59.9721103" lon="17.7504455">
        <ele>30.4188</ele>
        <time>2012-09-02T20:49:21Z</time>
      </trkpt>
      <trkpt lat="59.972146" lon="17.7503237">
        <ele>30.8995</ele>
        <time>2012-09-02T20:49:24Z</time>
      </trkpt>
      <trkpt lat="59.9722515" lon="17.7501432">
        <ele>31.3801</ele>
        <time>2012-09-02T20:49:30Z</time>
      </trkpt>
      <trkpt lat="59.9723426" lon="17.7498994">
        <ele>31.8607</ele>
        <time>2012-09-02T20:49:36Z</time>
      </trkpt>
      <trkpt lat="59.9724527" lon="17.7496362">
        <ele>30.8995</ele>
        <time>2012-09-02T20:49:43Z</time>
      </trkpt>
      <trkpt lat="59.9725346" lon="17.7494793">
        <ele>29.4575</ele>
        <time>2012-09-02T20:49:48Z</time>
      </trkpt>
      <trkpt lat="59.9725753" lon="17.7493685">
        <ele>28.9769</ele>
        <time>2012-09-02T20:49:51Z</time>
      </trkpt>
      <trkpt lat="59.9726722" lon="17.7491955">
        <ele>29.4575</ele>
        <time>2012-09-02T20:49:57Z</time>
      </trkpt>
      <trkpt lat="59.9727654" lon="17.7490276">
        <ele>28.4962</ele>
        <time>2012-09-02T20:50:03Z</time>
      </trkpt>
      <trkpt lat="59.9728462" lon="17.7488453">
        <ele>27.0543</ele>
        <time>2012-09-02T20:50:08Z</time>
      </trkpt>
      <trkpt lat="59.972936" lon="17.7486547">
        <ele>27.0543</ele>
        <time>2012-09-02T20:50:13Z</time>
      </trkpt>
      <trkpt lat="59.9730064" lon="17.7485034">
        <ele>27.5349</ele>
        <time>2012-09-02T20:50:17Z</time>
      </trkpt>
      <trkpt lat="59.973096" lon="17.7483706">
        <ele>27.5349</ele>
        <time>2012-09-02T20:50:22Z</time>
      </trkpt>
      <trkpt lat="59.9732008" lon="17.7481774">
        <ele>27.5349</ele>
        <time>2012-09-02T20:50:28Z</time>
      </trkpt>
      <trkpt lat="59.9733307" lon="17.7480237">
        <ele>27.5349</ele>
        <time>2012-09-02T20:50:34Z</time>
      </trkpt>
      <trkpt lat="59.9734075" lon="17.7479303">
        <ele>27.5349</ele>
        <time>2012-09-02T20:50:38Z</time>
      </trkpt>
      <trkpt lat="59.973556" lon="17.7477931">
        <ele>28.4962</ele>
        <time>2012-09-02T20:50:45Z</time>
      </trkpt>
      <trkpt lat="59.9736747" lon="17.7476788">
        <ele>28.4962</ele>
        <time>2012-09-02T20:50:50Z</time>
      </trkpt>
      <trkpt lat="59.973753" lon="17.7475854">
        <ele>28.9769</ele>
        <time>2012-09-02T20:50:54Z</time>
      </trkpt>
      <trkpt lat="59.9738482" lon="17.7474755">
        <ele>29.9381</ele>
        <time>2012-09-02T20:50:59Z</time>
      </trkpt>
      <trkpt lat="59.9739014" lon="17.747383">
        <ele>30.8995</ele>
        <time>2012-09-02T20:51:03Z</time>
      </trkpt>
      <trkpt lat="59.9739878" lon="17.7471975">
        <ele>30.8995</ele>
        <time>2012-09-02T20:51:08Z</time>
      </trkpt>
      <trkpt lat="59.9741247" lon="17.7470292">
        <ele>29.4575</ele>
        <time>2012-09-02T20:51:15Z</time>
      </trkpt>
      <trkpt lat="59.9742099" lon="17.7469474">
        <ele>28.9769</ele>
        <time>2012-09-02T20:51:19Z</time>
      </trkpt>
      <trkpt lat="59.9743128" lon="17.7468309">
        <ele>28.0155</ele>
        <time>2012-09-02T20:51:24Z</time>
      </trkpt>
      <trkpt lat="59.9744323" lon="17.7466966">
        <ele>26.5736</ele>
        <time>2012-09-02T20:51:30Z</time>
      </trkpt>
      <trkpt lat="59.9745414" lon="17.7465458">
        <ele>27.5349</ele>
        <time>2012-09-02T20:51:36Z</time>
      </trkpt>
      <trkpt lat="59.9746558" lon="17.7463784">
        <ele>27.5349</ele>
        <time>2012-09-02T20:51:42Z</time>
      </trkpt>
      <trkpt lat="59.9747573" lon="17.7462293">
        <ele>28.0155</ele>
        <time>2012-09-02T20:51:47Z</time>
      </trkpt>
      <trkpt lat="59.9748479" lon="17.7460744">
        <ele>28.4962</ele>
        <time>2012-09-02T20:51:52Z</time>
      </trkpt>
      <trkpt lat="59.9749437" lon="17.7458648">
        <ele>28.0155</ele>
        <time>2012-09-02T20:51:58Z</time>
      </trkpt>
      <trkpt lat="59.9749786" lon="17.7457917">
        <ele>27.5349</ele>
        <time>2012-09-02T20:52:00Z</time>
      </trkpt>
      <trkpt lat="59.9750469" lon="17.7455823">
        <ele>27.0543</ele>
        <time>2012-09-02T20:52:05Z</time>
      </trkpt>
      <trkpt lat="59.9751256" lon="17.7453639">
        <ele>27.5349</ele>
        <time>2012-09-02T20:52:10Z</time>
      </trkpt>
      <trkpt lat="59.9752053" lon="17.7451259">
        <ele>28.0155</ele>
        <time>2012-09-02T20:52:16Z</time>
      </trkpt>
      <trkpt lat="59.9752492" lon="17.744961">
        <ele>28.4962</ele>
        <time>2012-09-02T20:52:20Z</time>
      </trkpt>
      <trkpt lat="59.9752998" lon="17.7447271">
        <ele>29.9381</ele>
        <time>2012-09-02T20:52:25Z</time>
      </trkpt>
      <trkpt lat="59.9753489" lon="17.7444956">
        <ele>30.8995</ele>
        <time>2012-09-02T20:52:30Z</time>
      </trkpt>
      <trkpt lat="59.9753898" lon="17.7442024">
        <ele>32.3416</ele>
        <time>2012-09-02T20:52:36Z</time>
      </trkpt>
      <trkpt lat="59.9754391" lon="17.7438577">
        <ele>32.3416</ele>
        <time>2012-09-02T20:52:43Z</time>
      </trkpt>
      <trkpt lat="59.9754838" lon="17.7436303">
        <ele>32.3416</ele>
        <time>2012-09-02T20:52:48Z</time>
      </trkpt>
      <trkpt lat="59.9755308" lon="17.7434022">
        <ele>32.8223</ele>
        <time>2012-09-02T20:52:53Z</time>
      </trkpt>
      <trkpt lat="59.9755672" lon="17.7432211">
        <ele>32.8223</ele>
        <time>2012-09-02T20:52:57Z</time>
      </trkpt>
      <trkpt lat="59.97564" lon="17.7429181">
        <ele>32.3416</ele>
        <time>2012-09-02T20:53:04Z</time>
      </trkpt>
      <trkpt lat="59.9757089" lon="17.7426638">
        <ele>33.3029</ele>
        <time>2012-09-02T20:53:10Z</time>
      </trkpt>
      <trkpt lat="59.9757758" lon="17.7423995">
        <ele>34.2642</ele>
        <time>2012-09-02T20:53:16Z</time>
      </trkpt>
      <trkpt lat="59.9758354" lon="17.7421697">
        <ele>35.2255</ele>
        <time>2012-09-02T20:53:21Z</time>
      </trkpt>
      <trkpt lat="59.975901" lon="17.7419191">
        <ele>35.2255</ele>
        <time>2012-09-02T20:53:27Z</time>
      </trkpt>
      <trkpt lat="59.9759549" lon="17.7416573">
        <ele>35.7061</ele>
        <time>2012-09-02T20:53:33Z</time>
      </trkpt>
      <trkpt lat="59.9760237" lon="17.741394">
        <ele>35.2255</ele>
        <time>2012-09-02T20:53:39Z</time>
      </trkpt>
      <trkpt lat="59.976101" lon="17.7411104">
        <ele>33.7834</ele>
        <time>2012-09-02T20:53:46Z</time>
      </trkpt>
      <trkpt lat="59.9761672" lon="17.7409177">
        <ele>32.8223</ele>
        <time>2012-09-02T20:53:51Z</time>
      </trkpt>
      <trkpt lat="59.9762464" lon="17.7406882">
        <ele>31.8607</ele>
        <time>2012-09-02T20:53:57Z</time>
      </trkpt>
      <trkpt lat="59.9763422" lon="17.7404463">
        <ele>30.8995</ele>
        <time>2012-09-02T20:54:03Z</time>
      </trkpt>
      <trkpt lat="59.9764192" lon="17.7402642">
        <ele>29.4575</ele>
        <time>2012-09-02T20:54:08Z</time>
      </trkpt>
      <trkpt lat="59.9765105" lon="17.74005">
        <ele>28.0155</ele>
        <time>2012-09-02T20:54:14Z</time>
      </trkpt>
      <trkpt lat="59.9765865" lon="17.7398324">
        <ele>29.9381</ele>
        <time>2012-09-02T20:54:19Z</time>
      </trkpt>
      <trkpt lat="59.9766874" lon="17.7396915">
        <ele>30.8995</ele>
        <time>2012-09-02T20:54:24Z</time>
      </trkpt>
      <trkpt lat="59.9767935" lon="17.7395686">
        <ele>33.3029</ele>
        <time>2012-09-02T20:54:29Z</time>
      </trkpt>
      <trkpt lat="59.9769334" lon="17.7395026">
        <ele>34.2642</ele>
        <time>2012-09-02T20:54:35Z</time>
      </trkpt>
      <trkpt lat="59.9770411" lon="17.7394725">
        <ele>34.2642</ele>
        <time>2012-09-02T20:54:40Z</time>
      </trkpt>
      <trkpt lat="59.9771434" lon="17.7393873">
        <ele>34.2642</ele>
        <time>2012-09-02T20:54:46Z</time>
      </trkpt>
      <trkpt lat="59.9772525" lon="17.7393087">
        <ele>33.3029</ele>
        <time>2012-09-02T20:54:51Z</time>
      </trkpt>
      <trkpt lat="59.9772773" lon="17.7393054">
        <ele>32.8223</ele>
        <time>2012-09-02T20:54:52Z</time>
      </trkpt>
      <trkpt lat="59.9773944" lon="17.7390357">
        <ele>37.6287</ele>
        <time>2012-09-02T20:54:59Z</time>
      </trkpt>
      <trkpt lat="59.9774767" lon="17.7390016">
        <ele>37.1481</ele>
        <time>2012-09-02T20:55:03Z</time>
      </trkpt>
      <trkpt lat="59.9775637" lon="17.7389409">
        <ele>36.6675</ele>
        <time>2012-09-02T20:55:08Z</time>
      </trkpt>
      <trkpt lat="59.9775871" lon="17.7389389">
        <ele>36.6675</ele>
        <time>2012-09-02T20:55:09Z</time>
      </trkpt>
      <trkpt lat="59.9777364" lon="17.7389087">
        <ele>37.6287</ele>
        <time>2012-09-02T20:55:16Z</time>
      </trkpt>
      <trkpt lat="59.9778418" lon="17.7389493">
        <ele>37.6287</ele>
        <time>2012-09-02T20:55:21Z</time>
      </trkpt>
      <trkpt lat="59.9779797" lon="17.7390217">
        <ele>37.1481</ele>
        <time>2012-09-02T20:55:27Z</time>
      </trkpt>
      <trkpt lat="59.9780934" lon="17.7390911">
        <ele>36.6675</ele>
        <time>2012-09-02T20:55:32Z</time>
      </trkpt>
      <trkpt lat="59.9782091" lon="17.7391377">
        <ele>38.1094</ele>
        <time>2012-09-02T20:55:37Z</time>
      </trkpt>
      <trkpt lat="59.9783476" lon="17.7391611">
        <ele>37.1481</ele>
        <time>2012-09-02T20:55:43Z</time>
      </trkpt>
      <trkpt lat="59.9785009" lon="17.7391912">
        <ele>38.1094</ele>
        <time>2012-09-02T20:55:49Z</time>
      </trkpt>
      <trkpt lat="59.9786271" lon="17.7392299">
        <ele>37.1481</ele>
        <time>2012-09-02T20:55:54Z</time>
      </trkpt>
      <trkpt lat="59.9787278" lon="17.7392733">
        <ele>36.1868</ele>
        <time>2012-09-02T20:55:59Z</time>
      </trkpt>
      <trkpt lat="59.9788279" lon="17.7392808">
        <ele>35.2255</ele>
        <time>2012-09-02T20:56:04Z</time>
      </trkpt>
      <trkpt lat="59.978848" lon="17.7392824">
        <ele>35.2255</ele>
        <time>2012-09-02T20:56:05Z</time>
      </trkpt>
      <trkpt lat="59.9789155" lon="17.7394344">
        <ele>34.7449</ele>
        <time>2012-09-02T20:56:09Z</time>
      </trkpt>
      <trkpt lat="59.9788761" lon="17.739572">
        <ele>35.2255</ele>
        <time>2012-09-02T20:56:12Z</time>
      </trkpt>
      <trkpt lat="59.9788506" lon="17.7396887">
        <ele>35.2255</ele>
        <time>2012-09-02T20:56:15Z</time>
      </trkpt>
      <trkpt lat="59.9788926" lon="17.7399478">
        <ele>36.6675</ele>
        <time>2012-09-02T20:56:21Z</time>
      </trkpt>
    </trkseg>
  </trk>
</gpx>